Time;durP1;ratioP1;P1;durP2;ratioP2;P2;SDS_P1;SDS_P2;PMS_P1;PMS_P2;Temp;Humidity;BMP_temperature;BMP_pressure;BME280_temperature;BME280_humidity;BME280_pressure;Samples;Min_cycle;Max_cycle;Signal;HPM_P1;HPM_P2
2023/07/26 00:00:25;;;;;;;5.53;2.28;;;13.50;8.70;;;;;;4964709;28;20035;-64
2023/07/26 00:02:51;;;;;;;5.90;2.50;;;12.90;9.90;;;;;;4966150;28;20050;-64
2023/07/26 00:05:17;;;;;;;7.28;2.90;;;12.80;14.20;;;;;;4962343;28;20043;-64
2023/07/26 00:07:43;;;;;;;6.25;2.40;;;13.40;14.80;;;;;;4964891;28;20039;-63
2023/07/26 00:10:09;;;;;;;10.85;3.20;;;;;;;;;;4942435;28;20043;-63
2023/07/26 00:12:35;;;;;;;7.28;2.38;;;13.40;5.50;;;;;;4967467;28;20113;-63
2023/07/26 00:15:01;;;;;;;6.10;2.95;;;;;;;;;;4965721;28;20497;-63
2023/07/26 00:17:26;;;;;;;8.93;2.60;;;12.70;10.90;;;;;;4963979;28;20110;-64
2023/07/26 00:19:52;;;;;;;6.07;2.50;;;13.00;17.30;;;;;;4963872;28;20512;-63
2023/07/26 00:22:17;;;;;;;7.63;2.45;;;12.50;20.40;;;;;;4954624;28;20122;-63
2023/07/26 00:24:43;;;;;;;6.30;2.33;;;13.00;21.50;;;;;;4950375;28;20042;-64
2023/07/26 00:27:09;;;;;;;5.43;2.10;;;12.70;20.00;;;;;;4951004;28;20566;-65
2023/07/26 00:29:34;;;;;;;6.20;2.10;;;13.00;28.00;;;;;;4947660;28;20031;-64
2023/07/26 00:32:00;;;;;;;6.82;2.28;;;13.70;37.80;;;;;;4946340;28;20054;-63
2023/07/26 00:34:25;;;;;;;8.25;2.63;;;12.90;26.70;;;;;;4953746;28;20042;-65
2023/07/26 00:36:51;;;;;;;6.03;2.15;;;12.90;27.70;;;;;;4942222;28;20701;-64
2023/07/26 00:39:18;;;;;;;6.20;2.00;;;13.30;17.60;;;;;;4952928;28;20090;-64
2023/07/26 00:41:44;;;;;;;5.68;1.90;;;;;;;;;;4943130;28;20506;-65
2023/07/26 00:44:10;;;;;;;6.40;2.10;;;;;;;;;;4942356;28;20031;-65
2023/07/26 00:46:36;;;;;;;7.88;2.10;;;12.90;11.80;;;;;;4936527;28;20127;-64
2023/07/26 00:49:01;;;;;;;5.75;2.47;;;13.20;5.10;;;;;;4939851;28;20525;-66
2023/07/26 00:51:28;;;;;;;5.18;2.15;;;13.20;5.20;;;;;;4952405;28;20466;-64
2023/07/26 00:53:54;;;;;;;5.90;1.80;;;13.10;9.20;;;;;;4948583;28;20035;-64
2023/07/26 00:56:20;;;;;;;5.80;2.10;;;12.90;11.10;;;;;;4952406;28;20047;-64
2023/07/26 00:58:47;;;;;;;6.00;2.00;;;13.00;11.40;;;;;;4938806;28;20051;-64
2023/07/26 01:01:13;;;;;;;7.50;2.20;;;13.00;2.60;;;;;;4942165;28;20047;-64
2023/07/26 01:03:38;;;;;;;5.70;1.95;;;12.90;4.70;;;;;;4952065;28;20035;-64
2023/07/26 01:06:10;;;;;;;5.78;2.03;;;12.70;5.50;;;;;;4949921;28;20036;-65
2023/07/26 01:08:54;;;;;;;5.60;2.25;;;12.60;35.10;;;;;;4945105;28;20066;-64
2023/07/26 01:11:23;;;;;;;7.70;2.45;;;13.00;24.10;;;;;;4941888;28;20106;-64
2023/07/26 01:14:08;;;;;;;5.60;2.13;;;12.80;48.10;;;;;;4938621;28;20081;-65
2023/07/26 01:16:34;;;;;;;6.65;1.85;;;13.30;28.20;;;;;;4937007;28;20043;-65
2023/07/26 01:19:00;;;;;;;6.15;2.30;;;13.50;25.80;;;;;;4940179;28;20387;-64
2023/07/26 01:21:30;;;;;;;6.45;1.95;;;13.20;2.90;;;;;;4936741;28;20043;-65
2023/07/26 01:23:56;;;;;;;5.45;1.90;;;12.80;3.70;;;;;;4945332;28;20031;-64
2023/07/26 01:26:22;;;;;;;6.07;1.80;;;12.60;8.20;;;;;;4946693;28;20047;-64
2023/07/26 01:28:48;;;;;;;5.90;2.22;;;12.90;15.70;;;;;;4938416;28;20083;-65
2023/07/26 01:31:16;;;;;;;4.75;1.77;;;12.90;14.60;;;;;;4952683;28;20125;-65
2023/07/26 01:33:44;;;;;;;7.57;1.85;;;12.70;20.20;;;;;;4954381;28;20050;-64
2023/07/26 01:36:10;;;;;;;6.45;2.10;;;12.60;17.40;;;;;;4952537;28;20090;-64
2023/07/26 01:38:37;;;;;;;4.93;2.03;;;13.40;24.00;;;;;;4962622;28;20490;-64
2023/07/26 01:41:03;;;;;;;5.47;2.30;;;12.80;22.70;;;;;;4954238;28;20157;-65
2023/07/26 01:43:29;;;;;;;7.15;2.00;;;12.50;27.30;;;;;;4963146;28;20044;-64
2023/07/26 01:45:54;;;;;;;5.78;2.33;;;12.60;40.40;;;;;;4970976;28;20035;-65
2023/07/26 01:48:20;;;;;;;8.00;3.13;;;12.60;50.60;;;;;;4962985;28;20486;-64
2023/07/26 01:50:46;;;;;;;7.53;2.20;;;12.30;59.20;;;;;;4960636;28;20098;-63
2023/07/26 01:53:11;;;;;;;6.78;1.85;;;12.90;71.20;;;;;;4964066;28;20039;-64
2023/07/26 01:55:37;;;;;;;5.40;2.15;;;12.60;66.90;;;;;;4961915;28;20046;-64
2023/07/26 01:58:03;;;;;;;6.25;2.13;;;12.20;67.60;;;;;;4961766;28;20118;-63
2023/07/26 02:00:30;;;;;;;5.22;2.17;;;12.40;74.40;;;;;;4960717;28;20187;-63
2023/07/26 02:02:56;;;;;;;6.47;2.10;;;;;;;;;;4962516;28;20042;-64
2023/07/26 02:05:24;;;;;;;7.90;2.08;;;12.90;79.40;;;;;;4956083;28;20039;-64
2023/07/26 02:07:49;;;;;;;14.32;2.72;;;12.70;84.30;;;;;;4970265;28;20046;-64
2023/07/26 02:10:15;;;;;;;7.15;2.42;;;12.20;90.50;;;;;;4955436;28;20047;-63
2023/07/26 02:12:41;;;;;;;7.15;2.50;;;12.60;93.00;;;;;;4960461;28;20041;-62
2023/07/26 02:15:07;;;;;;;8.48;2.40;;;12.30;92.20;;;;;;4968994;28;20113;-64
2023/07/26 02:17:34;;;;;;;9.15;2.58;;;;;;;;;;4959355;28;20045;-64
2023/07/26 02:20:00;;;;;;;9.00;2.35;;;13.10;96.30;;;;;;4955415;28;20062;-63
2023/07/26 02:22:25;;;;;;;6.97;2.42;;;12.40;99.90;;;;;;4947946;28;20413;-63
2023/07/26 02:24:51;;;;;;;7.88;2.53;;;12.60;99.90;;;;;;4949218;28;20039;-64
2023/07/26 02:27:17;;;;;;;6.13;2.20;;;12.40;99.90;;;;;;4951687;28;20035;-64
2023/07/26 02:29:43;;;;;;;7.85;2.45;;;12.60;99.90;;;;;;4947289;28;20047;-63
2023/07/26 02:32:08;;;;;;;8.98;2.38;;;12.60;99.90;;;;;;4951837;28;20118;-64
2023/07/26 02:34:35;;;;;;;6.95;2.60;;;12.50;99.50;;;;;;4944269;28;20042;-64
2023/07/26 02:37:01;;;;;;;7.05;2.33;;;12.60;99.90;;;;;;4941550;28;20031;-63
2023/07/26 02:39:26;;;;;;;7.18;2.22;;;12.40;99.90;;;;;;5018465;23;20035;-63
2023/07/26 02:41:52;;;;;;;7.13;2.33;;;12.60;99.90;;;;;;4957151;28;20088;-64
2023/07/26 02:44:18;;;;;;;7.28;2.38;;;12.50;99.90;;;;;;4970574;28;20043;-65
2023/07/26 02:46:43;;;;;;;7.05;2.47;;;12.50;99.90;;;;;;4983241;28;20208;-66
2023/07/26 02:49:09;;;;;;;6.88;2.40;;;12.60;98.20;;;;;;4982232;28;20480;-65
2023/07/26 02:51:35;;;;;;;7.18;2.50;;;12.60;99.90;;;;;;4990628;28;20046;-65
2023/07/26 02:54:00;;;;;;;8.70;2.58;;;13.20;99.90;;;;;;4987870;28;20044;-65
2023/07/26 02:56:26;;;;;;;6.38;2.10;;;12.60;99.90;;;;;;4975501;28;20043;-64
2023/07/26 02:58:51;;;;;;;8.48;2.90;;;12.70;99.90;;;;;;4981390;28;20035;-64
2023/07/26 03:01:17;;;;;;;6.45;2.90;;;13.10;99.90;;;;;;4984840;28;20030;-65
2023/07/26 03:03:43;;;;;;;9.68;2.85;;;12.70;99.90;;;;;;4975000;28;20038;-64
2023/07/26 03:06:09;;;;;;;10.13;3.30;;;13.00;99.90;;;;;;4977542;28;20038;-65
2023/07/26 03:08:34;;;;;;;6.18;2.47;;;12.80;99.90;;;;;;4980328;28;20110;-64
2023/07/26 03:11:00;;;;;;;7.60;2.83;;;12.80;99.90;;;;;;4975103;28;20034;-65
2023/07/26 03:13:26;;;;;;;8.00;3.05;;;13.10;99.90;;;;;;4980384;28;20126;-65
2023/07/26 03:15:52;;;;;;;7.53;2.85;;;12.70;99.90;;;;;;4983927;28;20050;-65
2023/07/26 03:18:18;;;;;;;8.45;3.15;;;12.60;99.90;;;;;;4989471;28;20216;-65
2023/07/26 03:20:46;;;;;;;6.80;3.10;;;12.90;99.90;;;;;;4986688;28;20125;-65
2023/07/26 03:23:12;;;;;;;7.93;3.40;;;13.20;99.90;;;;;;4987406;28;20476;-65
2023/07/26 03:25:38;;;;;;;8.90;3.20;;;12.70;99.90;;;;;;4990122;28;20052;-65
2023/07/26 03:28:04;;;;;;;8.07;2.83;;;12.70;99.90;;;;;;4986386;28;20552;-65
2023/07/26 03:30:29;;;;;;;7.00;3.17;;;12.70;99.90;;;;;;4978052;28;20119;-65
2023/07/26 03:32:55;;;;;;;8.65;2.83;;;12.50;99.90;;;;;;4980382;28;20126;-65
2023/07/26 03:35:21;;;;;;;6.80;2.92;;;12.60;99.90;;;;;;4982412;28;20049;-65
2023/07/26 03:37:46;;;;;;;8.05;3.08;;;13.10;99.90;;;;;;4981092;28;20053;-65
2023/07/26 03:40:12;;;;;;;8.70;3.20;;;12.40;99.90;;;;;;4987244;28;20035;-66
2023/07/26 03:42:38;;;;;;;7.70;2.92;;;12.60;99.90;;;;;;4975349;28;20118;-65
2023/07/26 03:45:04;;;;;;;8.10;3.20;;;12.50;99.90;;;;;;4984211;28;20114;-64
2023/07/26 03:47:30;;;;;;;6.85;2.60;;;12.90;99.90;;;;;;4981319;28;20404;-64
2023/07/26 03:49:55;;;;;;;7.78;3.67;;;12.70;99.90;;;;;;4972233;28;20058;-65
2023/07/26 03:52:21;;;;;;;8.50;3.20;;;12.60;99.90;;;;;;4978091;28;20121;-65
2023/07/26 03:54:48;;;;;;;7.47;2.90;;;12.70;99.90;;;;;;4972652;28;20050;-64
2023/07/26 03:57:13;;;;;;;9.32;3.03;;;12.60;99.90;;;;;;4984540;28;20741;-65
2023/07/26 03:59:39;;;;;;;7.20;3.17;;;12.40;99.90;;;;;;4980516;28;20041;-65
2023/07/26 04:02:05;;;;;;;10.00;3.42;;;12.80;99.90;;;;;;4978559;28;20037;-64
2023/07/26 04:04:31;;;;;;;9.70;3.47;;;;;;;;;;4977374;28;20030;-65
2023/07/26 04:06:56;;;;;;;9.23;3.67;;;12.60;99.90;;;;;;4979379;28;20046;-65
2023/07/26 04:09:22;;;;;;;9.23;3.13;;;12.90;99.90;;;;;;4977590;28;20038;-64
2023/07/26 04:11:48;;;;;;;7.63;3.08;;;12.30;99.90;;;;;;4986785;28;20054;-65
2023/07/26 04:14:14;;;;;;;8.88;3.20;;;;;;;;;;4983853;28;20038;-64
2023/07/26 04:16:40;;;;;;;9.75;3.17;;;13.20;99.90;;;;;;4987851;28;20082;-65
2023/07/26 04:19:05;;;;;;;7.43;3.17;;;12.60;99.90;;;;;;4972957;28;20500;-65
2023/07/26 04:21:31;;;;;;;9.23;3.10;;;12.90;99.90;;;;;;4987663;28;20140;-64
2023/07/26 04:23:56;;;;;;;8.55;3.25;;;13.20;99.90;;;;;;4985414;28;20034;-64
2023/07/26 04:26:22;;;;;;;10.32;3.25;;;13.20;99.90;;;;;;4989580;28;20034;-65
2023/07/26 04:28:50;;;;;;;7.38;3.00;;;13.40;99.90;;;;;;4983050;28;20034;-64
2023/07/26 04:31:16;;;;;;;9.32;3.00;;;13.20;99.90;;;;;;4980752;28;20229;-65
2023/07/26 04:33:41;;;;;;;8.60;3.50;;;12.80;99.90;;;;;;4989871;28;20037;-65
2023/07/26 04:36:07;;;;;;;8.80;3.00;;;13.00;99.90;;;;;;4978690;28;20086;-64
2023/07/26 04:38:33;;;;;;;9.90;3.28;;;13.40;99.90;;;;;;4982719;28;20030;-65
2023/07/26 04:40:58;;;;;;;10.00;3.45;;;13.00;99.90;;;;;;4973337;28;20045;-65
2023/07/26 04:43:24;;;;;;;8.32;2.70;;;12.80;99.90;;;;;;4992599;28;20034;-65
2023/07/26 04:45:51;;;;;;;8.65;2.53;;;12.80;99.90;;;;;;4977790;28;20079;-66
2023/07/26 04:48:17;;;;;;;7.97;2.60;;;12.50;99.90;;;;;;4985122;28;20049;-65
2023/07/26 04:50:44;;;;;;;9.98;2.75;;;12.80;99.90;;;;;;4984404;28;20122;-65
2023/07/26 04:53:10;;;;;;;9.18;2.53;;;12.80;99.90;;;;;;4981381;28;20203;-64
2023/07/26 04:55:50;;;;;;;7.90;2.97;;;12.70;99.90;;;;;;4979377;28;20114;-64
2023/07/26 04:58:16;;;;;;;10.07;3.38;;;12.40;99.90;;;;;;4974902;28;20035;-64
2023/07/26 05:00:43;;;;;;;8.55;2.90;;;12.50;99.90;;;;;;4984959;28;20042;-65
2023/07/26 05:03:12;;;;;;;7.25;2.90;;;13.00;99.90;;;;;;4990852;28;20034;-64
2023/07/26 05:05:39;;;;;;;9.93;2.95;;;13.10;99.90;;;;;;4981834;28;20161;-64
2023/07/26 05:08:08;;;;;;;6.50;2.83;;;12.70;99.90;;;;;;4986800;28;20073;-64
2023/07/26 05:10:34;;;;;;;11.15;3.67;;;13.00;99.90;;;;;;4986709;28;20566;-64
2023/07/26 05:13:00;;;;;;;9.70;3.38;;;12.80;99.90;;;;;;4984462;28;20361;-64
2023/07/26 05:15:26;;;;;;;10.52;3.58;;;12.70;99.90;;;;;;4986720;28;20039;-64
2023/07/26 05:17:52;;;;;;;8.80;3.28;;;12.70;99.90;;;;;;4988259;28;20049;-64
2023/07/26 05:20:18;;;;;;;10.68;3.80;;;13.40;99.90;;;;;;4984532;28;20039;-63
2023/07/26 05:22:43;;;;;;;11.75;3.55;;;12.60;99.90;;;;;;4990744;28;20077;-64
2023/07/26 05:25:10;;;;;;;11.18;3.75;;;12.80;99.90;;;;;;4986025;28;20093;-64
2023/07/26 05:27:35;;;;;;;7.95;3.17;;;12.70;99.90;;;;;;4992264;28;20129;-64
2023/07/26 05:30:01;;;;;;;8.52;3.10;;;12.50;99.90;;;;;;4990593;28;20089;-64
2023/07/26 05:32:27;;;;;;;7.18;2.78;;;12.70;99.90;;;;;;4983113;28;20424;-64
2023/07/26 05:34:57;;;;;;;10.55;3.80;;;13.00;99.90;;;;;;4991669;28;20042;-62
2023/07/26 05:37:23;;;;;;;8.23;3.25;;;12.70;99.90;;;;;;4979859;28;20077;-63
2023/07/26 05:39:50;;;;;;;9.35;3.40;;;12.50;99.90;;;;;;4985096;28;20043;-63
2023/07/26 05:42:16;;;;;;;7.80;3.63;;;12.70;99.90;;;;;;4979154;28;20393;-64
2023/07/26 05:44:42;;;;;;;6.72;3.10;;;12.10;99.90;;;;;;4983255;28;20110;-64
2023/07/26 05:47:10;;;;;;;8.07;3.40;;;12.50;99.90;;;;;;4984549;28;20038;-63
2023/07/26 05:49:36;;;;;;;7.10;3.00;;;12.50;99.90;;;;;;4985613;28;20046;-63
2023/07/26 05:52:03;;;;;;;8.32;3.60;;;12.30;99.90;;;;;;4990999;28;20126;-63
2023/07/26 05:54:29;;;;;;;7.15;2.85;;;;;;;;;;4985212;28;20046;-64
2023/07/26 05:56:54;;;;;;;9.07;3.38;;;12.60;99.90;;;;;;4994661;28;20468;-62
2023/07/26 05:59:20;;;;;;;10.85;3.97;;;12.30;99.90;;;;;;4984678;28;20122;-63
2023/07/26 06:01:46;;;;;;;9.38;4.22;;;12.60;99.90;;;;;;4984655;28;20070;-62
2023/07/26 06:04:12;;;;;;;11.32;4.45;;;13.00;99.90;;;;;;4990900;28;20408;-63
2023/07/26 06:06:37;;;;;;;7.97;3.75;;;12.80;99.90;;;;;;4985657;28;20035;-64
2023/07/26 06:09:05;;;;;;;13.73;3.95;;;12.70;99.90;;;;;;4988789;28;20069;-64
2023/07/26 06:11:30;;;;;;;8.77;3.72;;;12.30;99.90;;;;;;4996347;28;20380;-63
2023/07/26 06:13:56;;;;;;;9.07;3.30;;;12.40;99.90;;;;;;4976742;28;20042;-62
2023/07/26 06:16:22;;;;;;;10.38;3.42;;;12.30;99.90;;;;;;4987927;28;20042;-64
2023/07/26 06:18:49;;;;;;;8.90;3.90;;;12.60;99.90;;;;;;4984122;28;20061;-64
2023/07/26 06:21:15;;;;;;;6.63;3.30;;;12.40;99.90;;;;;;4989096;28;20404;-64
2023/07/26 06:23:41;;;;;;;7.95;3.42;;;12.50;99.90;;;;;;4987485;28;20053;-64
2023/07/26 06:26:07;;;;;;;8.77;3.83;;;12.30;99.90;;;;;;4990650;28;20065;-64
2023/07/26 06:28:32;;;;;;;8.60;3.60;;;12.90;99.90;;;;;;4986724;28;20485;-65
2023/07/26 06:30:58;;;;;;;9.52;3.40;;;12.70;99.90;;;;;;4980562;28;20496;-63
2023/07/26 06:33:23;;;;;;;7.03;3.13;;;13.50;99.90;;;;;;4971821;28;20041;-64
2023/07/26 06:35:53;;;;;;;9.52;3.83;;;12.20;99.90;;;;;;4988954;28;20041;-64
2023/07/26 06:38:19;;;;;;;6.93;2.88;;;12.50;99.90;;;;;;4980696;28;20564;-64
2023/07/26 06:40:44;;;;;;;7.90;3.00;;;13.20;99.90;;;;;;4982277;28;20137;-64
2023/07/26 06:43:10;;;;;;;8.40;3.10;;;11.90;99.90;;;;;;4995459;28;20121;-63
2023/07/26 06:45:36;;;;;;;6.43;2.80;;;12.20;99.90;;;;;;4986302;28;20038;-64
2023/07/26 06:48:01;;;;;;;7.45;2.92;;;12.70;99.90;;;;;;4989556;28;20042;-64
2023/07/26 06:50:27;;;;;;;6.85;2.83;;;11.90;99.90;;;;;;4962875;28;20038;-63
2023/07/26 06:52:53;;;;;;;6.28;2.92;;;12.10;99.90;;;;;;4992138;28;20399;-63
2023/07/26 06:55:18;;;;;;;8.65;3.30;;;12.20;99.90;;;;;;4974863;28;20035;-64
2023/07/26 06:57:44;;;;;;;8.45;3.58;;;12.50;99.90;;;;;;4989743;28;20085;-64
2023/07/26 07:00:12;;;;;;;6.90;3.20;;;12.20;99.90;;;;;;4980448;28;20038;-64
2023/07/26 07:02:41;;;;;;;7.07;3.83;;;12.30;99.90;;;;;;4980087;28;20039;-64
2023/07/26 07:05:07;;;;;;;6.78;3.10;;;12.40;99.90;;;;;;4975888;28;20062;-65
2023/07/26 07:07:33;;;;;;;6.95;2.70;;;12.60;99.90;;;;;;4983113;28;20125;-64
2023/07/26 07:09:59;;;;;;;8.15;2.88;;;12.60;99.90;;;;;;4979130;28;20131;-64
2023/07/26 07:12:24;;;;;;;9.02;3.25;;;12.30;99.90;;;;;;4979996;28;20070;-63
2023/07/26 07:14:50;;;;;;;6.72;3.25;;;12.30;99.90;;;;;;4983889;28;20461;-64
2023/07/26 07:17:16;;;;;;;8.18;3.60;;;12.70;99.90;;;;;;4987336;28;20034;-65
2023/07/26 07:19:45;;;;;;;8.30;3.08;;;12.70;99.90;;;;;;4983394;28;20066;-64
2023/07/26 07:22:11;;;;;;;8.18;3.50;;;12.80;99.90;;;;;;4973638;28;20381;-63
2023/07/26 07:24:38;;;;;;;6.25;2.97;;;12.40;99.90;;;;;;4982896;28;20112;-64
2023/07/26 07:27:04;;;;;;;5.95;3.17;;;12.90;99.90;;;;;;4985882;28;20405;-63
2023/07/26 07:29:32;;;;;;;9.55;4.32;;;12.60;99.90;;;;;;4989832;28;20769;-64
2023/07/26 07:31:57;;;;;;;8.40;3.25;;;12.70;99.90;;;;;;4983330;28;20081;-63
2023/07/26 07:34:23;;;;;;;7.93;3.60;;;12.80;99.90;;;;;;4977179;28;20149;-64
2023/07/26 07:36:49;;;;;;;7.50;4.20;;;12.50;99.90;;;;;;4986572;28;20038;-64
2023/07/26 07:39:15;;;;;;;8.15;3.85;;;12.50;99.90;;;;;;4975124;28;20030;-64
2023/07/26 07:41:40;;;;;;;8.98;3.75;;;13.40;99.90;;;;;;4983278;28;20412;-64
2023/07/26 07:44:06;;;;;;;8.00;3.45;;;12.50;99.90;;;;;;4981601;28;20042;-64
2023/07/26 07:46:32;;;;;;;7.78;3.40;;;12.90;99.90;;;;;;4989472;28;20098;-63
2023/07/26 07:48:59;;;;;;;7.13;2.95;;;13.10;99.90;;;;;;4989046;28;20108;-64
2023/07/26 07:51:24;;;;;;;6.57;2.97;;;13.30;99.90;;;;;;4973692;28;20526;-64
2023/07/26 07:53:50;;;;;;;6.20;3.00;;;13.10;99.90;;;;;;4978500;28;20113;-64
2023/07/26 07:56:16;;;;;;;6.00;3.10;;;13.20;99.90;;;;;;4983812;28;20037;-64
2023/07/26 07:58:42;;;;;;;9.00;3.65;;;;;;;;;;4986725;28;20044;-64
2023/07/26 08:01:08;;;;;;;8.45;3.17;;;13.00;99.90;;;;;;4975990;28;20039;-64
2023/07/26 08:03:34;;;;;;;8.13;3.10;;;13.90;99.90;;;;;;4977541;28;20037;-64
2023/07/26 08:06:00;;;;;;;7.13;2.90;;;13.90;99.90;;;;;;4981415;28;20485;-64
2023/07/26 08:08:25;;;;;;;8.07;3.40;;;13.50;99.90;;;;;;4983678;28;20076;-63
2023/07/26 08:10:51;;;;;;;7.97;3.05;;;13.60;99.90;;;;;;4988613;28;20042;-64
2023/07/26 08:13:17;;;;;;;6.82;3.08;;;;;;;;;;4979618;28;20130;-64
2023/07/26 08:15:43;;;;;;;7.63;3.13;;;13.50;99.90;;;;;;4982227;28;20068;-64
2023/07/26 08:18:09;;;;;;;6.10;3.13;;;13.50;99.90;;;;;;4976435;28;20488;-64
2023/07/26 08:20:35;;;;;;;6.18;3.20;;;13.70;99.90;;;;;;4981260;28;20046;-64
2023/07/26 08:23:03;;;;;;;8.68;2.88;;;13.20;99.90;;;;;;4993145;28;20457;-64
2023/07/26 08:25:28;;;;;;;7.78;3.13;;;14.20;99.90;;;;;;4985094;28;20108;-63
2023/07/26 08:27:55;;;;;;;7.97;3.53;;;14.20;99.90;;;;;;4988006;28;20117;-63
2023/07/26 08:30:20;;;;;;;6.85;3.42;;;14.00;99.90;;;;;;4984650;28;20553;-62
2023/07/26 08:32:46;;;;;;;6.82;3.10;;;;;;;;;;4985882;28;20283;-64
2023/07/26 08:35:12;;;;;;;8.52;3.17;;;14.20;99.90;;;;;;4980739;28;20035;-63
2023/07/26 08:37:38;;;;;;;6.93;3.05;;;14.60;99.90;;;;;;4981621;28;20054;-63
2023/07/26 08:40:04;;;;;;;8.18;3.50;;;14.30;99.90;;;;;;4984671;28;20046;-63
2023/07/26 08:42:30;;;;;;;8.02;3.67;;;14.50;99.90;;;;;;4988118;28;20113;-63
2023/07/26 08:44:56;;;;;;;7.70;3.55;;;14.60;99.90;;;;;;4985979;28;20078;-62
2023/07/26 08:47:22;;;;;;;9.57;3.60;;;15.00;99.90;;;;;;4980133;28;20429;-63
2023/07/26 08:49:52;;;;;;;7.95;3.40;;;14.90;99.90;;;;;;4975863;28;20452;-63
2023/07/26 08:52:18;;;;;;;5.78;3.00;;;14.80;99.90;;;;;;4987002;28;20077;-63
2023/07/26 08:54:46;;;;;;;6.93;2.88;;;15.20;99.90;;;;;;4987492;28;20420;-62
2023/07/26 08:57:12;;;;;;;7.55;3.13;;;14.70;90.10;;;;;;4988686;28;20038;-63
2023/07/26 08:59:39;;;;;;;8.63;2.95;;;;;;;;;;4986213;28;20034;-63
2023/07/26 09:02:09;;;;;;;6.18;3.03;;;15.00;1.00;;;;;;4985157;28;20485;-63
2023/07/26 09:04:35;;;;;;;5.63;2.63;;;14.90;60.00;;;;;;4980791;28;20085;-62
2023/07/26 09:07:05;;;;;;;6.53;2.53;;;15.50;1.00;;;;;;4987447;28;20044;-62
2023/07/26 09:09:35;;;;;;;5.00;2.08;;;15.60;1.00;;;;;;4988938;28;20507;-63
2023/07/26 09:12:02;;;;;;;6.78;2.50;;;15.10;1.00;;;;;;4979881;28;20046;-63
2023/07/26 09:14:31;;;;;;;5.60;2.75;;;15.20;1.00;;;;;;4988968;28;20042;-64
2023/07/26 09:16:58;;;;;;;5.60;2.80;;;15.10;99.90;;;;;;4962021;28;20080;-63
2023/07/26 09:19:31;;;;;;;5.70;2.20;;;15.20;1.00;;;;;;4980723;28;20078;-63
2023/07/26 09:22:01;;;;;;;7.13;2.58;;;15.30;1.00;;;;;;4977024;28;20078;-63
2023/07/26 09:24:39;;;;;;;6.90;2.22;;;15.10;1.00;;;;;;4991704;28;20041;-64
2023/07/26 09:27:10;;;;;;;5.55;2.10;;;15.10;99.90;;;;;;4987084;28;20043;-64
2023/07/26 09:29:39;;;;;;;5.88;2.20;;;16.10;99.90;;;;;;4988924;28;20049;-63
2023/07/26 09:32:06;;;;;;;5.43;2.00;;;16.10;99.90;;;;;;4982592;28;20043;-64
2023/07/26 09:34:32;;;;;;;5.95;2.42;;;15.50;99.90;;;;;;4983622;28;20034;-64
2023/07/26 09:36:59;;;;;;;5.20;2.10;;;15.80;99.90;;;;;;4986062;28;20587;-64
2023/07/26 09:39:26;;;;;;;4.53;1.92;;;15.70;99.90;;;;;;4988182;28;20073;-63
2023/07/26 09:42:08;;;;;;;5.97;2.40;;;;;;;;;;4984310;28;20054;-64
2023/07/26 09:44:36;;;;;;;5.13;2.13;;;15.40;99.90;;;;;;4988551;28;20042;-64
2023/07/26 09:47:02;;;;;;;6.45;3.17;;;16.10;99.90;;;;;;4978615;28;20043;-64
2023/07/26 09:49:29;;;;;;;7.35;2.78;;;16.20;99.90;;;;;;4988893;28;20038;-63
2023/07/26 09:51:58;;;;;;;5.60;2.40;;;15.90;99.90;;;;;;4993691;28;20105;-64
2023/07/26 09:54:28;;;;;;;7.50;3.08;;;15.30;99.90;;;;;;4989783;28;20044;-64
2023/07/26 09:56:56;;;;;;;5.82;2.70;;;15.30;99.90;;;;;;4975804;28;20043;-64
2023/07/26 09:59:25;;;;;;;5.95;2.42;;;16.00;99.90;;;;;;4980159;28;20405;-64
2023/07/26 10:01:52;;;;;;;6.82;3.05;;;15.60;99.90;;;;;;4981749;28;20098;-64
2023/07/26 10:04:44;;;;;;;5.97;2.00;;;16.30;99.90;;;;;;4986655;28;20038;-64
2023/07/26 10:07:13;;;;;;;7.25;2.95;;;16.30;99.90;;;;;;4988384;28;20063;-64
2023/07/26 10:09:44;;;;;;;7.30;2.78;;;16.00;99.90;;;;;;4984495;28;20634;-63
2023/07/26 10:12:10;;;;;;;6.72;2.80;;;15.90;99.90;;;;;;4986758;28;20050;-64
2023/07/26 10:14:36;;;;;;;6.38;2.72;;;16.40;99.90;;;;;;4986884;28;20041;-64
2023/07/26 10:17:06;;;;;;;6.03;2.75;;;16.20;99.90;;;;;;4978995;28;20058;-64
2023/07/26 10:19:32;;;;;;;6.82;2.70;;;16.30;99.90;;;;;;4976294;28;20058;-63
2023/07/26 10:21:58;;;;;;;6.15;2.55;;;16.60;99.90;;;;;;4983020;28;20042;-63
2023/07/26 10:24:25;;;;;;;5.18;2.35;;;16.70;99.90;;;;;;4988891;28;20054;-63
2023/07/26 10:26:54;;;;;;;6.28;2.40;;;16.50;99.90;;;;;;4975390;28;20038;-64
2023/07/26 10:29:20;;;;;;;6.88;2.25;;;16.90;99.90;;;;;;4990302;28;20085;-61
2023/07/26 10:31:47;;;;;;;6.38;1.98;;;17.00;99.90;;;;;;4976378;28;20046;-63
2023/07/26 10:34:20;;;;;;;5.47;2.20;;;16.50;99.90;;;;;;4989419;28;20038;-63
2023/07/26 10:36:46;;;;;;;6.07;2.20;;;16.70;99.90;;;;;;4990402;28;20041;-63
2023/07/26 10:39:14;;;;;;;5.80;2.20;;;16.60;99.90;;;;;;4979295;28;20551;-63
2023/07/26 10:41:50;;;;;;;5.18;1.90;;;17.20;99.90;;;;;;4979329;28;20049;-64
2023/07/26 10:44:16;;;;;;;5.22;2.30;;;17.20;99.90;;;;;;4977430;28;20060;-62
2023/07/26 10:47:05;;;;;;;7.82;2.28;;;16.60;99.90;;;;;;4978304;28;20046;-64
2023/07/26 10:49:33;;;;;;;5.45;1.95;;;16.60;99.90;;;;;;4984351;28;20062;-63
2023/07/26 10:52:02;;;;;;;8.35;2.60;;;16.50;99.90;;;;;;4990332;28;20038;-63
2023/07/26 10:54:51;;;;;;;5.00;2.03;;;16.90;99.90;;;;;;4985521;28;20392;-63
2023/07/26 10:57:26;;;;;;;7.35;2.33;;;16.70;99.90;;;;;;4983699;28;20081;-62
2023/07/26 11:00:00;;;;;;;6.15;2.40;;;16.40;99.90;;;;;;4980837;28;20145;-63
2023/07/26 11:02:48;;;;;;;7.03;2.42;;;16.70;99.90;;;;;;4979265;28;20034;-63
2023/07/26 11:05:18;;;;;;;7.20;2.70;;;16.70;99.90;;;;;;4977488;28;20049;-64
2023/07/26 11:08:00;;;;;;;9.82;2.63;;;16.50;99.90;;;;;;4980920;28;21217;-63
2023/07/26 11:10:30;;;;;;;8.20;2.88;;;16.60;99.90;;;;;;4989724;28;20039;-62
2023/07/26 11:13:04;;;;;;;6.35;2.75;;;16.50;99.90;;;;;;4976406;28;20129;-63
2023/07/26 11:15:31;;;;;;;5.25;2.10;;;17.20;99.90;;;;;;4979959;28;20057;-63
2023/07/26 11:17:57;;;;;;;6.25;1.88;;;16.70;99.90;;;;;;4981263;28;20508;-64
2023/07/26 11:20:23;;;;;;;5.13;2.00;;;16.70;99.90;;;;;;4980878;28;20038;-63
2023/07/26 11:22:50;;;;;;;5.25;1.63;;;17.20;99.90;;;;;;4984569;28;20038;-63
2023/07/26 11:25:15;;;;;;;4.25;1.70;;;16.80;99.90;;;;;;4972277;28;20050;-63
2023/07/26 11:27:41;;;;;;;6.10;1.83;;;17.00;84.00;;;;;;4989668;28;20400;-63
2023/07/26 11:30:18;;;;;;;4.80;1.90;;;16.80;49.10;;;;;;4990206;28;20069;-62
2023/07/26 11:32:49;;;;;;;4.28;1.50;;;17.30;61.50;;;;;;4980772;28;20385;-63
2023/07/26 11:35:19;;;;;;;10.00;1.95;;;17.40;1.00;;;;;;4987631;28;20038;-62
2023/07/26 11:37:55;;;;;;;4.57;1.63;;;17.70;1.00;;;;;;4976206;28;20034;-64
2023/07/26 11:40:21;;;;;;;8.80;2.13;;;17.70;1.00;;;;;;4989832;28;20480;-63
2023/07/26 11:42:49;;;;;;;5.05;1.65;;;17.60;1.00;;;;;;4984656;28;20146;-64
2023/07/26 11:45:15;;;;;;;6.45;1.80;;;17.90;1.00;;;;;;4981108;28;20034;-64
2023/07/26 11:47:41;;;;;;;6.18;1.73;;;18.10;1.00;;;;;;4985828;28;20038;-63
2023/07/26 11:50:07;;;;;;;5.85;1.83;;;17.70;1.00;;;;;;4974134;28;20035;-63
2023/07/26 11:52:33;;;;;;;5.13;1.98;;;17.60;1.00;;;;;;4983595;28;20043;-63
2023/07/26 11:55:03;;;;;;;6.20;2.45;;;17.50;99.90;;;;;;4989793;28;20120;-63
2023/07/26 11:57:30;;;;;;;5.75;2.05;;;18.20;99.90;;;;;;4992891;28;20489;-63
2023/07/26 11:59:58;;;;;;;5.35;1.92;;;17.60;99.90;;;;;;4988392;28;20042;-63
2023/07/26 12:02:25;;;;;;;6.57;1.85;;;17.90;1.00;;;;;;4993720;28;20042;-64
2023/07/26 12:05:19;;;;;;;5.40;1.83;;;17.30;99.90;;;;;;4983722;28;20443;-63
2023/07/26 12:07:52;;;;;;;5.65;1.58;;;17.60;1.00;;;;;;4987276;28;20054;-63
2023/07/26 12:10:30;;;;;;;5.85;1.80;;;18.10;1.00;;;;;;4987113;28;20054;-64
2023/07/26 12:12:56;;;;;;;6.38;2.13;;;17.50;1.00;;;;;;4980133;28;20444;-64
2023/07/26 12:15:23;;;;;;;5.93;1.90;;;18.00;1.00;;;;;;4986643;28;20057;-62
2023/07/26 12:17:57;;;;;;;8.40;2.33;;;18.20;99.90;;;;;;4990419;28;20093;-64
2023/07/26 12:20:25;;;;;;;5.60;1.88;;;17.90;99.90;;;;;;4981808;28;20117;-63
2023/07/26 12:22:52;;;;;;;6.93;2.28;;;17.90;99.90;;;;;;4989082;28;20051;-64
2023/07/26 12:25:19;;;;;;;6.15;1.92;;;18.50;99.90;;;;;;4976797;28;20132;-63
2023/07/26 12:27:47;;;;;;;7.45;2.15;;;18.40;99.90;;;;;;4982448;28;20046;-63
2023/07/26 12:30:15;;;;;;;5.55;1.70;;;18.60;1.00;;;;;;4986835;28;20049;-64
2023/07/26 12:32:41;;;;;;;5.63;1.65;;;18.40;99.90;;;;;;4984946;28;20149;-63
2023/07/26 12:35:22;;;;;;;3.85;1.45;;;18.80;99.90;;;;;;4992978;28;20042;-64
2023/07/26 12:37:52;;;;;;;4.93;1.70;;;19.00;96.40;;;;;;4981595;28;20053;-63
2023/07/26 12:40:19;;;;;;;7.40;1.60;;;19.10;99.90;;;;;;4987712;28;20111;-63
2023/07/26 12:42:46;;;;;;;4.10;1.60;;;;;;;;;;4986577;28;20136;-63
2023/07/26 12:45:13;;;;;;;4.78;1.83;;;18.10;99.90;;;;;;4981618;28;20039;-63
2023/07/26 12:47:40;;;;;;;4.55;1.90;;;19.00;99.90;;;;;;4985104;28;20093;-63
2023/07/26 12:50:06;;;;;;;5.80;1.70;;;20.20;1.00;;;;;;4985740;28;20035;-63
2023/07/26 12:52:32;;;;;;;5.15;1.80;;;21.80;99.90;;;;;;4971594;28;20050;-63